Buoy 51523

sailwx.info

Track history (hours):
 
Tides and Currents Weather Stations Pressure Air Temp Water Temp Dewpoint Dewpoint Depression Visibility Wind Speed Wind Dir Waves Ship Positions

Drifting buoy 51523

Last reported at 2016-Jun-30 21:45 UTC. Time now 2016-Jun-30 23:10 UTC.
Position N 20°35' E 135°48'.

Water temperature 30.0 ° C

Date/timePositionNaut miles runAvg speedWind from/ knotsBaromVisibWave heightAir tempDewpointWater temp
2016-Jun-30 21:45N 20°35' E 135°48'0 0.0 30.0
2016-Jun-30 21:30N 20°35' E 135°48'1 1.5 30.0
2016-Jun-30 20:45N 20°35' E 135°49'0 0.0 30.0
2016-Jun-30 20:30N 20°35' E 135°49'0 1.2 30.1
2016-Jun-30 20:15N 20°35' E 135°49'1 3.0 30.1
2016-Jun-30 20:00N 20°35' E 135°50'1 0.6 30.1
2016-Jun-30 19:00N 20°35' E 135°50'0 0.0 30.1
2016-Jun-30 18:45N 20°35' E 135°50'0 0.0 30.1
2016-Jun-30 17:15N 20°35' E 135°50'3 0.7 30.1
2016-Jun-30 13:15N 20°34' E 135°53'1 2.8 30.2
2016-Jun-30 13:00N 20°34' E 135°52'1 1.5 30.2
2016-Jun-30 12:30N 20°34' E 135°53'0 0.0 30.2
2016-Jun-30 12:15N 20°34' E 135°53'2 2.3 30.2
2016-Jun-30 11:30N 20°34' E 135°54'0 0.0 30.2
2016-Jun-30 10:45N 20°34' E 135°54'0 0.0 30.2
2016-Jun-30 09:30N 20°34' E 135°54'0 1.7 30.2
2016-Jun-30 09:15N 20°34' E 135°55'0 1.6 30.3
2016-Jun-30 09:00N 20°34' E 135°55'1 1.8 30.3
2016-Jun-30 08:15N 20°34' E 135°57'0 0.0 30.3
2016-Jun-30 07:45N 20°34' E 135°57'0 1.3 30.3
2016-Jun-30 07:30N 20°34' E 135°57'0 0.0 30.3
2016-Jun-30 06:30N 20°34' E 135°57'0 0.0 30.3
2016-Jun-30 06:15N 20°34' E 135°57'1 0.7 30.3
2016-Jun-30 04:45N 20°33' E 135°58'311.7 30.3
2016-Jun-30 04:30N 20°33' E 136°01'0 0.0 30.3
2016-Jun-30 01:15N 20°33' E 136°01'1 4.2 30.1
2016-Jun-30 01:00N 20°34' E 136°02'0 0.0 30.1
2016-Jun-30 00:15N 20°34' E 136°02'0 0.0 30.0
2016-Jun-29 23:45N 20°34' E 136°02'1 3.3 30.0
2016-Jun-29 23:30N 20°34' E 136°03'0 0.1 30.0
2016-Jun-29 22:00N 20°34' E 136°03'0 0.0 30.0
2016-Jun-29 21:45N 20°34' E 136°03'0 0.8 30.0
2016-Jun-29 21:15N 20°34' E 136°03'0 0.0 30.0
2016-Jun-29 21:00N 20°34' E 136°03'0 0.0 30.0
2016-Jun-29 20:45N 20°34' E 136°03'1 1.3 30.0
2016-Jun-29 20:15N 20°35' E 136°04'0 0.0 30.0
2016-Jun-29 20:00N 20°35' E 136°04'1 1.4 30.0
2016-Jun-29 19:30N 20°35' E 136°05'0 0.5 30.0
2016-Jun-29 19:15N 20°35' E 136°05'1 2.1 30.0
2016-Jun-29 19:00N 20°35' E 136°05'0 0.1 30.0
2016-Jun-29 17:30N 20°35' E 136°05'0 0.0 30.0
2016-Jun-29 17:15N 20°35' E 136°05'3 0.8 30.0
2016-Jun-29 13:30N 20°36' E 136°08'0 0.6 30.1
2016-Jun-29 12:45N 20°37' E 136°08'0 0.0 30.1
2016-Jun-29 12:00N 20°37' E 136°08'0 0.0 30.1
2016-Jun-29 11:45N 20°37' E 136°08'1 0.8 30.1
2016-Jun-29 11:00N 20°37' E 136°07'0 0.5 30.1
2016-Jun-29 10:00N 20°38' E 136°08'0 1.4 30.1
2016-Jun-29 09:45N 20°38' E 136°08'0 1.7 30.2
2016-Jun-29 09:30N 20°37' E 136°08'0 0.9 30.2
2016-Jun-29 09:15N 20°38' E 136°08'0 0.0 30.2
2016-Jun-29 08:45N 20°38' E 136°08'1 2.5 30.2
2016-Jun-29 08:30N 20°38' E 136°08'0 0.0 30.2
2016-Jun-29 08:15N 20°38' E 136°08'0 0.0 30.2
2016-Jun-29 08:00N 20°38' E 136°08'0 0.0 30.3
2016-Jun-29 07:45N 20°38' E 136°08'0 0.0 30.3
2016-Jun-29 07:30N 20°38' E 136°08'1 1.2 30.3
2016-Jun-29 07:00N 20°38' E 136°09'1 2.7 30.3
2016-Jun-29 06:30N 20°38' E 136°10'0 0.0 30.3
2016-Jun-29 05:00N 20°38' E 136°10'313.6 30.2
2016-Jun-29 04:45N 20°39' E 136°14'1 0.3 30.2
2016-Jun-29 01:30N 20°40' E 136°14'0 0.2 30.1
2016-Jun-29 00:45N 20°40' E 136°14'0 0.4 30.1
2016-Jun-29 00:00N 20°40' E 136°13'0 0.0 30.0
2016-Jun-28 23:45N 20°40' E 136°13'1 1.1 30.0
2016-Jun-28 23:00N 20°40' E 136°14'0 0.0 30.1
2016-Jun-28 22:00N 20°40' E 136°14'0 0.7 30.0
2016-Jun-28 21:30N 20°41' E 136°14'0 0.3 30.0
2016-Jun-28 20:30N 20°41' E 136°14'0 0.0 30.0
2016-Jun-28 20:15N 20°41' E 136°14'1 2.2 30.0
2016-Jun-28 20:00N 20°41' E 136°14'1 5.2 30.0
2016-Jun-28 19:45N 20°42' E 136°13'0 0.0 30.1
2016-Jun-28 19:15N 20°42' E 136°13'0 0.0 30.0
2016-Jun-28 17:45N 20°42' E 136°13'0 0.0 30.1
2016-Jun-28 17:30N 20°42' E 136°13'3 0.3 30.1
2016-Jun-28 08:00N 20°44' E 136°15'0 0.0 30.3
2016-Jun-28 07:45N 20°44' E 136°15'0 0.8 30.3
2016-Jun-28 07:30N 20°44' E 136°15'0 0.0 30.3
2016-Jun-28 07:15N 20°44' E 136°15'1 2.5 30.3
2016-Jun-28 06:45N 20°44' E 136°17'0 0.0 30.4
2016-Jun-28 05:15N 20°44' E 136°17'3 0.8 30.3
2016-Jun-28 02:00N 20°44' E 136°19'1 5.0 30.2
2016-Jun-28 01:45N 20°45' E 136°20'0 0.0 30.2
2016-Jun-28 00:15N 20°45' E 136°20'0 0.0 30.1
2016-Jun-28 00:00N 20°45' E 136°20'1 0.8 30.1
2016-Jun-27 22:15N 20°45' E 136°22'0 0.0 30.0
2016-Jun-27 22:00N 20°45' E 136°22'0 0.2 30.0
2016-Jun-27 20:45N 20°45' E 136°21'1 2.0 30.0
2016-Jun-27 20:30N 20°46' E 136°22'1 2.6 30.0
2016-Jun-27 20:15N 20°46' E 136°21'0 0.0 30.0
2016-Jun-27 18:00N 20°46' E 136°21'0 0.7 30.0
2016-Jun-27 17:45N 20°46' E 136°21'2 1.2 30.0
2016-Jun-27 16:15N 20°47' E 136°22'0 0.0 30.0
2016-Jun-27 16:00N 20°47' E 136°22'0 0.0 30.0
2016-Jun-27 13:30N 20°47' E 136°22'0 0.0 30.1
2016-Jun-27 13:15N 20°47' E 136°22'0 0.3 30.1
2016-Jun-27 12:45N 20°47' E 136°23'0 0.0 30.1
2016-Jun-27 12:30N 20°47' E 136°23'0 0.5 30.2
2016-Jun-27 11:45N 20°48' E 136°23'0 0.5 30.2
2016-Jun-27 11:00N 20°48' E 136°22'0 0.0 30.2
2016-Jun-27 10:45N 20°48' E 136°22'1 1.1 30.2
2016-Jun-27 09:45N 20°48' E 136°23'0 0.0 30.3
2016-Jun-27 09:30N 20°48' E 136°23'0 0.0 30.3
2016-Jun-27 09:15N 20°48' E 136°23'1 0.5 30.3
2016-Jun-27 08:15N 20°48' E 136°23'2 8.3 30.3
2016-Jun-27 08:00N 20°47' E 136°24'0 0.0 30.3
2016-Jun-27 05:15N 20°47' E 136°24'0 0.0 30.4
2016-Jun-27 03:30N 20°47' E 136°24'1 0.3 30.3
2016-Jun-27 00:45N 20°46' E 136°25'1 0.5 30.1
2016-Jun-26 23:45N 20°47' E 136°26'0 0.1 30.1
2016-Jun-26 21:00N 20°47' E 136°26'0 1.0 30.0
2016-Jun-26 20:45N 20°47' E 136°26'1 0.9 30.0
2016-Jun-26 19:15N 20°47' E 136°27'0 0.0 30.1
2016-Jun-26 18:00N 20°47' E 136°27'2 0.3 30.1
2016-Jun-26 13:00N 20°48' E 136°29'0 0.0 30.2
2016-Jun-26 12:45N 20°48' E 136°29'1 1.8 30.2
2016-Jun-26 12:15N 20°49' E 136°30'1 2.1 30.2
2016-Jun-26 12:00N 20°49' E 136°30'0 0.3 30.2
2016-Jun-26 11:15N 20°49' E 136°30'1 0.4 30.2
2016-Jun-26 10:00N 20°50' E 136°30'0 0.0 30.3
2016-Jun-26 09:45N 20°50' E 136°30'0 0.1 30.3
2016-Jun-26 08:15N 20°50' E 136°30'0 0.0 30.4
2016-Jun-26 08:00N 20°50' E 136°30'1 0.3 30.4
2016-Jun-26 05:30N 20°49' E 136°29'0 0.0 30.4
2016-Jun-26 05:15N 20°49' E 136°29'1 0.2 30.4
2016-Jun-26 01:45N 20°48' E 136°29'0 0.6 30.2
2016-Jun-26 01:00N 20°48' E 136°30'1 2.9 30.2
2016-Jun-26 00:45N 20°48' E 136°31'0 0.0 30.2
2016-Jun-25 23:15N 20°48' E 136°31'0 0.9 30.1
2016-Jun-25 22:45N 20°48' E 136°30'0 0.0 30.1
2016-Jun-25 22:30N 20°48' E 136°30'0 0.3 30.1
2016-Jun-25 21:30N 20°48' E 136°31'1 2.1 30.1
2016-Jun-25 21:15N 20°48' E 136°31'0 0.0 30.1
2016-Jun-25 21:00N 20°48' E 136°31'0 0.0 30.1
2016-Jun-25 20:45N 20°48' E 136°31'1 0.6 30.1
2016-Jun-25 19:45N 20°48' E 136°32'0 0.0 30.1
2016-Jun-25 19:30N 20°48' E 136°32'0 0.0 30.1
2016-Jun-25 18:15N 20°48' E 136°32'0 0.0 30.1
2016-Jun-25 18:00N 20°48' E 136°32'1 0.3 30.1
2016-Jun-25 13:15N 20°49' E 136°33'0 0.0 30.2
2016-Jun-25 12:30N 20°49' E 136°33'0 2.0 30.2
2016-Jun-25 12:15N 20°49' E 136°33'0 0.0 30.2
2016-Jun-25 11:45N 20°49' E 136°33'0 0.0 30.2
2016-Jun-25 11:30N 20°49' E 136°33'1 0.6 30.2
2016-Jun-25 10:00N 20°50' E 136°32'0 0.0 30.3
2016-Jun-25 08:45N 20°50' E 136°32'0 0.3 30.3
2016-Jun-25 08:30N 20°50' E 136°32'0 0.0 30.4
2016-Jun-25 08:15N 20°50' E 136°32'1 0.3 30.4
2016-Jun-25 05:45N 20°49' E 136°32'0 0.0 30.4
2016-Jun-25 05:30N 20°49' E 136°32'1 0.7 30.5
2016-Jun-25 04:00N 20°48' E 136°32'0 0.1 30.4
2016-Jun-25 01:15N 20°48' E 136°32'1 0.4 30.3
2016-Jun-24 23:45N 20°47' E 136°33'0 1.4 30.2
2016-Jun-24 23:30N 20°47' E 136°32'0 0.0 30.2
2016-Jun-24 22:00N 20°47' E 136°32'0 0.0 30.2
2016-Jun-24 21:45N 20°47' E 136°32'0 0.9 30.2
2016-Jun-24 21:15N 20°48' E 136°33'0 0.0 30.2
2016-Jun-24 21:00N 20°48' E 136°33'1 1.4 30.2
2016-Jun-24 20:15N 20°48' E 136°34'0 0.9 30.2
2016-Jun-24 20:00N 20°48' E 136°34'0 0.0 30.2
2016-Jun-24 19:45N 20°48' E 136°34'1 2.7 30.3
2016-Jun-24 19:30N 20°48' E 136°34'0 0.1 30.3
2016-Jun-24 18:30N 20°48' E 136°34'0 0.0 30.3
2016-Jun-24 18:15N 20°48' E 136°34'1 0.4 30.3
2016-Jun-24 16:45N 20°48' E 136°35'1 0.3 30.3
2016-Jun-24 13:30N 20°48' E 136°36'0 0.0 30.3
2016-Jun-24 12:45N 20°48' E 136°36'1 1.1 30.3
2016-Jun-24 12:00N 20°49' E 136°36'0 0.0 30.3
2016-Jun-24 11:45N 20°49' E 136°36'1 1.9 30.3
2016-Jun-24 11:15N 20°49' E 136°36'0 0.0 30.4
2016-Jun-24 11:00N 20°49' E 136°36'1 0.5 30.4
2016-Jun-24 09:15N 20°50' E 136°36'0 0.0 30.5
2016-Jun-24 09:00N 20°50' E 136°36'0 0.0 30.5
2016-Jun-24 08:45N 20°50' E 136°36'0 1.9 30.5
2016-Jun-24 08:30N 20°50' E 136°36'0 0.0 30.5
2016-Jun-24 07:30N 20°50' E 136°36'0 0.0 30.6
2016-Jun-24 07:00N 20°50' E 136°36'0 0.0 30.5
2016-Jun-24 06:00N 20°50' E 136°36'0 0.0 30.5
2016-Jun-24 05:45N 20°50' E 136°36'0 0.2 30.5
2016-Jun-24 04:15N 20°50' E 136°36'0 0.0 30.5
2016-Jun-24 04:00N 20°50' E 136°36'1 0.2 30.5
2016-Jun-24 01:45N 20°50' E 136°36'1 2.0 30.3
2016-Jun-24 01:30N 20°50' E 136°36'0 0.2 30.3
2016-Jun-24 00:45N 20°50' E 136°36'0 0.3 30.2
2016-Jun-24 00:00N 20°50' E 136°36'0 0.0 30.1
2016-Jun-23 23:45N 20°50' E 136°36'1 0.8 30.1
2016-Jun-23 23:00N 20°51' E 136°36'0 0.0 30.0
2016-Jun-23 22:00N 20°51' E 136°36'0 0.0 30.0
2016-Jun-23 21:45N 20°51' E 136°36'0 0.0 30.0
2016-Jun-23 21:30N 20°51' E 136°36'0 0.0 30.0
2016-Jun-23 21:15N 20°51' E 136°36'0 0.4 30.0
2016-Jun-23 20:45N 20°51' E 136°35'0 0.0 30.0
2016-Jun-23 20:30N 20°51' E 136°35'0 0.2 30.1
2016-Jun-23 20:15N 20°51' E 136°35'0 0.4 30.1
2016-Jun-23 19:45N 20°51' E 136°35'0 0.0 30.1
2016-Jun-23 19:30N 20°51' E 136°35'0 0.0 30.1
2016-Jun-23 19:15N 20°51' E 136°35'0 0.0 30.1
2016-Jun-23 19:00N 20°51' E 136°35'0 0.2 30.1
2016-Jun-23 18:45N 20°51' E 136°36'0 0.0 30.1
2016-Jun-23 18:30N 20°51' E 136°36'0 0.1 30.1
2016-Jun-23 17:00N 20°51' E 136°35'0 0.0 30.1
2016-Jun-23 16:45N 20°51' E 136°35'1 0.2 30.1
2016-Jun-23 13:15N 20°51' E 136°35'0 0.0 30.2
2016-Jun-23 13:00N 20°51' E 136°35'0 0.0 30.3
2016-Jun-23 12:15N 20°51' E 136°35'1 1.0 30.3
2016-Jun-23 11:30N 20°51' E 136°36'0 0.0 30.3
2016-Jun-23 11:15N 20°51' E 136°36'1 1.8 30.3
2016-Jun-23 10:45N 20°52' E 136°35'0 0.0 30.4
2016-Jun-23 10:30N 20°52' E 136°35'0 0.3 30.4
2016-Jun-23 09:45N 20°52' E 136°36'0 1.4 30.4
2016-Jun-23 09:30N 20°52' E 136°35'0 0.0 30.4
2016-Jun-23 08:45N 20°52' E 136°35'0 0.6 30.5
2016-Jun-23 08:00N 20°52' E 136°35'0 0.0 30.6
2016-Jun-23 07:45N 20°52' E 136°35'0 0.5 30.6
2016-Jun-23 07:15N 20°52' E 136°35'0 0.0 30.6
2016-Jun-23 07:00N 20°52' E 136°35'1 0.5 30.6
2016-Jun-23 06:00N 20°52' E 136°34'1 0.5 30.5
2016-Jun-23 04:30N 20°51' E 136°34'0 0.0 30.4
2016-Jun-23 04:15N 20°51' E 136°34'1 0.4 30.4
2016-Jun-23 02:00N 20°52' E 136°35'0 0.0 30.1
2016-Jun-23 01:00N 20°52' E 136°35'0 0.4 30.0
2016-Jun-23 00:30N 20°52' E 136°35'0 0.0 30.0
2016-Jun-23 00:15N 20°52' E 136°35'2 2.2 30.0
2016-Jun-22 23:30N 20°53' E 136°34'0 0.0 30.0
2016-Jun-22 23:15N 20°53' E 136°34'0 0.0 30.0
2016-Jun-22 22:30N 20°53' E 136°34'0 0.0 29.9
2016-Jun-22 22:15N 20°53' E 136°34'0 0.0 29.9
2016-Jun-22 21:45N 20°53' E 136°34'0 0.0 29.9
2016-Jun-22 21:15N 20°53' E 136°34'1 1.4 29.9
2016-Jun-22 20:45N 20°53' E 136°33'0 0.0 29.9
2016-Jun-22 20:30N 20°53' E 136°33'0 0.0 29.9
2016-Jun-22 20:00N 20°53' E 136°33'0 1.6 29.9
2016-Jun-22 19:45N 20°53' E 136°34'1 2.5 29.9
2016-Jun-22 19:30N 20°54' E 136°33'0 0.0 29.9
2016-Jun-22 18:45N 20°54' E 136°33'0 0.3 29.9
2016-Jun-22 17:15N 20°53' E 136°33'0 0.0 29.9
2016-Jun-22 17:00N 20°53' E 136°33'0 0.1 29.9
2016-Jun-22 13:30N 20°53' E 136°32'0 0.2 29.9
2016-Jun-22 12:45N 20°54' E 136°32'0 0.0 29.9
2016-Jun-22 12:30N 20°54' E 136°32'1 0.7 30.0
2016-Jun-22 11:45N 20°54' E 136°33'1 0.9 29.9
2016-Jun-22 11:00N 20°54' E 136°32'0 0.0 30.0
2016-Jun-22 10:45N 20°54' E 136°32'1 1.1 30.0
2016-Jun-22 10:15N 20°54' E 136°33'0 0.0 30.0
2016-Jun-22 10:00N 20°54' E 136°33'0 0.4 30.0
2016-Jun-22 09:00N 20°54' E 136°33'0 0.8 30.1
2016-Jun-22 08:30N 20°54' E 136°33'1 3.1 30.1
2016-Jun-22 08:15N 20°53' E 136°34'0 0.0 30.1
2016-Jun-22 07:15N 20°53' E 136°34'0 0.4 30.1
2016-Jun-22 06:15N 20°53' E 136°34'0 0.0 30.1
2016-Jun-22 06:00N 20°53' E 136°34'1 0.4 30.1
2016-Jun-22 04:30N 20°53' E 136°34'2 0.6 30.1
2016-Jun-22 00:45N 20°53' E 136°37'0 0.0 29.9
2016-Jun-22 00:30N 20°53' E 136°37'2 0.7 29.9
2016-Jun-21 21:45N 20°53' E 136°39'0 1.0 29.9
2016-Jun-21 21:15N 20°54' E 136°39'0 0.0 29.9
2016-Jun-21 21:00N 20°54' E 136°39'2 0.9 29.9
2016-Jun-21 19:00N 20°54' E 136°41'0 0.0 29.9
2016-Jun-21 18:45N 20°54' E 136°41'4 0.8 29.9
2016-Jun-21 13:00N 20°53' E 136°45'2 1.1 30.0
2016-Jun-21 11:15N 20°52' E 136°47'0 0.0 30.0
2016-Jun-21 10:30N 20°52' E 136°47'1 0.4 30.1
2016-Jun-21 09:00N 20°52' E 136°48'0 0.0 30.1
2016-Jun-21 08:45N 20°52' E 136°48'2 1.3 30.1
2016-Jun-21 07:30N 20°50' E 136°48'1 0.7 30.2
2016-Jun-21 06:30N 20°50' E 136°49'0 0.0 30.2
2016-Jun-21 06:15N 20°50' E 136°49'2 1.3 30.2
2016-Jun-21 04:45N 20°48' E 136°50'311.7 30.2
2016-Jun-21 04:30N 20°45' E 136°50'1 0.5 30.1
2016-Jun-21 01:45N 20°44' E 136°51'0 0.3 30.0
2016-Jun-21 01:00N 20°44' E 136°52'0 0.0 30.0
2016-Jun-21 00:45N 20°44' E 136°52'1 1.2 30.0
2016-Jun-21 00:15N 20°44' E 136°52'0 0.0 30.0
2016-Jun-21 00:00N 20°44' E 136°52'1 1.7 30.0
2016-Jun-20 23:30N 20°43' E 136°52'1 5.8 30.0
2016-Jun-20 23:15N 20°42' E 136°53'0 0.1 30.0
2016-Jun-20 22:00N 20°42' E 136°53'1 2.8 29.9
2016-Jun-20 21:45N 20°41' E 136°53'   29.9
Track history (hours):
 
Tides and Currents Weather Stations Pressure Air Temp Water Temp Dewpoint Dewpoint Depression Visibility Wind Speed Wind Dir Waves Ship Positions

Drifting buoy 51523

Last reported at 2016-Jun-30 21:45 UTC. Time now 2016-Jun-30 23:10 UTC.
Position N 20°35' E 135°48'.

Water temperature 30.0 ° C

Date/timePositionNaut miles runAvg speedWind from/ knotsBaromVisibWave heightAir tempDewpointWater temp
2016-Jun-30 21:45N 20°35' E 135°48'0 0.0 30.0
2016-Jun-30 21:30N 20°35' E 135°48'1 1.5 30.0
2016-Jun-30 20:45N 20°35' E 135°49'0 0.0 30.0
2016-Jun-30 20:30N 20°35' E 135°49'0 1.2 30.1
2016-Jun-30 20:15N 20°35' E 135°49'1 3.0 30.1
2016-Jun-30 20:00N 20°35' E 135°50'1 0.6 30.1
2016-Jun-30 19:00N 20°35' E 135°50'0 0.0 30.1
2016-Jun-30 18:45N 20°35' E 135°50'0 0.0 30.1
2016-Jun-30 17:15N 20°35' E 135°50'3 0.7 30.1
2016-Jun-30 13:15N 20°34' E 135°53'1 2.8 30.2
2016-Jun-30 13:00N 20°34' E 135°52'1 1.5 30.2
2016-Jun-30 12:30N 20°34' E 135°53'0 0.0 30.2
2016-Jun-30 12:15N 20°34' E 135°53'2 2.3 30.2
2016-Jun-30 11:30N 20°34' E 135°54'0 0.0 30.2
2016-Jun-30 10:45N 20°34' E 135°54'0 0.0 30.2
2016-Jun-30 09:30N 20°34' E 135°54'0 1.7 30.2
2016-Jun-30 09:15N 20°34' E 135°55'0 1.6 30.3
2016-Jun-30 09:00N 20°34' E 135°55'1 1.8 30.3
2016-Jun-30 08:15N 20°34' E 135°57'0 0.0 30.3
2016-Jun-30 07:45N 20°34' E 135°57'0 1.3 30.3
2016-Jun-30 07:30N 20°34' E 135°57'0 0.0 30.3
2016-Jun-30 06:30N 20°34' E 135°57'0 0.0 30.3
2016-Jun-30 06:15N 20°34' E 135°57'1 0.7 30.3
2016-Jun-30 04:45N 20°33' E 135°58'311.7 30.3
2016-Jun-30 04:30N 20°33' E 136°01'0 0.0 30.3
2016-Jun-30 01:15N 20°33' E 136°01'1 4.2 30.1
2016-Jun-30 01:00N 20°34' E 136°02'0 0.0 30.1
2016-Jun-30 00:15N 20°34' E 136°02'0 0.0 30.0
2016-Jun-29 23:45N 20°34' E 136°02'1 3.3 30.0
2016-Jun-29 23:30N 20°34' E 136°03'0 0.1 30.0
2016-Jun-29 22:00N 20°34' E 136°03'0 0.0 30.0
2016-Jun-29 21:45N 20°34' E 136°03'0 0.8 30.0
2016-Jun-29 21:15N 20°34' E 136°03'0 0.0 30.0
2016-Jun-29 21:00N 20°34' E 136°03'0 0.0 30.0
2016-Jun-29 20:45N 20°34' E 136°03'1 1.3 30.0
2016-Jun-29 20:15N 20°35' E 136°04'0 0.0 30.0
2016-Jun-29 20:00N 20°35' E 136°04'1 1.4 30.0
2016-Jun-29 19:30N 20°35' E 136°05'0 0.5 30.0
2016-Jun-29 19:15N 20°35' E 136°05'1 2.1 30.0
2016-Jun-29 19:00N 20°35' E 136°05'0 0.1 30.0
2016-Jun-29 17:30N 20°35' E 136°05'0 0.0 30.0
2016-Jun-29 17:15N 20°35' E 136°05'3 0.8 30.0
2016-Jun-29 13:30N 20°36' E 136°08'0 0.6 30.1
2016-Jun-29 12:45N 20°37' E 136°08'0 0.0 30.1
2016-Jun-29 12:00N 20°37' E 136°08'0 0.0 30.1
2016-Jun-29 11:45N 20°37' E 136°08'1 0.8 30.1
2016-Jun-29 11:00N 20°37' E 136°07'0 0.5 30.1
2016-Jun-29 10:00N 20°38' E 136°08'0 1.4 30.1
2016-Jun-29 09:45N 20°38' E 136°08'0 1.7 30.2
2016-Jun-29 09:30N 20°37' E 136°08'0 0.9 30.2
2016-Jun-29 09:15N 20°38' E 136°08'0 0.0 30.2
2016-Jun-29 08:45N 20°38' E 136°08'1 2.5 30.2
2016-Jun-29 08:30N 20°38' E 136°08'0 0.0 30.2
2016-Jun-29 08:15N 20°38' E 136°08'0 0.0 30.2
2016-Jun-29 08:00N 20°38' E 136°08'0 0.0 30.3
2016-Jun-29 07:45N 20°38' E 136°08'0 0.0 30.3
2016-Jun-29 07:30N 20°38' E 136°08'1 1.2 30.3
2016-Jun-29 07:00N 20°38' E 136°09'1 2.7 30.3
2016-Jun-29 06:30N 20°38' E 136°10'0 0.0 30.3
2016-Jun-29 05:00N 20°38' E 136°10'313.6 30.2
2016-Jun-29 04:45N 20°39' E 136°14'1 0.3 30.2
2016-Jun-29 01:30N 20°40' E 136°14'0 0.2 30.1
2016-Jun-29 00:45N 20°40' E 136°14'0 0.4 30.1
2016-Jun-29 00:00N 20°40' E 136°13'0 0.0 30.0
2016-Jun-28 23:45N 20°40' E 136°13'1 1.1 30.0
2016-Jun-28 23:00N 20°40' E 136°14'0 0.0 30.1
2016-Jun-28 22:00N 20°40' E 136°14'0 0.7 30.0
2016-Jun-28 21:30N 20°41' E 136°14'0 0.3 30.0
2016-Jun-28 20:30N 20°41' E 136°14'0 0.0 30.0
2016-Jun-28 20:15N 20°41' E 136°14'1 2.2 30.0
2016-Jun-28 20:00N 20°41' E 136°14'1 5.2 30.0
2016-Jun-28 19:45N 20°42' E 136°13'0 0.0 30.1
2016-Jun-28 19:15N 20°42' E 136°13'0 0.0 30.0
2016-Jun-28 17:45N 20°42' E 136°13'0 0.0 30.1
2016-Jun-28 17:30N 20°42' E 136°13'3 0.3 30.1
2016-Jun-28 08:00N 20°44' E 136°15'0 0.0 30.3
2016-Jun-28 07:45N 20°44' E 136°15'0 0.8 30.3
2016-Jun-28 07:30N 20°44' E 136°15'0 0.0 30.3
2016-Jun-28 07:15N 20°44' E 136°15'1 2.5 30.3
2016-Jun-28 06:45N 20°44' E 136°17'0 0.0 30.4
2016-Jun-28 05:15N 20°44' E 136°17'3 0.8 30.3
2016-Jun-28 02:00N 20°44' E 136°19'1 5.0 30.2
2016-Jun-28 01:45N 20°45' E 136°20'0 0.0 30.2
2016-Jun-28 00:15N 20°45' E 136°20'0 0.0 30.1
2016-Jun-28 00:00N 20°45' E 136°20'1 0.8 30.1
2016-Jun-27 22:15N 20°45' E 136°22'0 0.0 30.0
2016-Jun-27 22:00N 20°45' E 136°22'0 0.2 30.0
2016-Jun-27 20:45N 20°45' E 136°21'1 2.0 30.0
2016-Jun-27 20:30N 20°46' E 136°22'1 2.6 30.0
2016-Jun-27 20:15N 20°46' E 136°21'0 0.0 30.0
2016-Jun-27 18:00N 20°46' E 136°21'0 0.7 30.0
2016-Jun-27 17:45N 20°46' E 136°21'2 1.2 30.0
2016-Jun-27 16:15N 20°47' E 136°22'0 0.0 30.0
2016-Jun-27 16:00N 20°47' E 136°22'0 0.0 30.0
2016-Jun-27 13:30N 20°47' E 136°22'0 0.0 30.1
2016-Jun-27 13:15N 20°47' E 136°22'0 0.3 30.1
2016-Jun-27 12:45N 20°47' E 136°23'0 0.0 30.1
2016-Jun-27 12:30N 20°47' E 136°23'0 0.5 30.2
2016-Jun-27 11:45N 20°48' E 136°23'0 0.5 30.2
2016-Jun-27 11:00N 20°48' E 136°22'0 0.0 30.2
2016-Jun-27 10:45N 20°48' E 136°22'1 1.1 30.2
2016-Jun-27 09:45N 20°48' E 136°23'0 0.0 30.3
2016-Jun-27 09:30N 20°48' E 136°23'0 0.0 30.3
2016-Jun-27 09:15N 20°48' E 136°23'1 0.5 30.3
2016-Jun-27 08:15N 20°48' E 136°23'2 8.3 30.3
2016-Jun-27 08:00N 20°47' E 136°24'0 0.0 30.3
2016-Jun-27 05:15N 20°47' E 136°24'0 0.0 30.4
2016-Jun-27 03:30N 20°47' E 136°24'1 0.3 30.3
2016-Jun-27 00:45N 20°46' E 136°25'1 0.5 30.1
2016-Jun-26 23:45N 20°47' E 136°26'0 0.1 30.1
2016-Jun-26 21:00N 20°47' E 136°26'0 1.0 30.0
2016-Jun-26 20:45N 20°47' E 136°26'1 0.9 30.0
2016-Jun-26 19:15N 20°47' E 136°27'0 0.0 30.1
2016-Jun-26 18:00N 20°47' E 136°27'2 0.3 30.1
2016-Jun-26 13:00N 20°48' E 136°29'0 0.0 30.2
2016-Jun-26 12:45N 20°48' E 136°29'1 1.8 30.2
2016-Jun-26 12:15N 20°49' E 136°30'1 2.1 30.2
2016-Jun-26 12:00N 20°49' E 136°30'0 0.3 30.2
2016-Jun-26 11:15N 20°49' E 136°30'1 0.4 30.2
2016-Jun-26 10:00N 20°50' E 136°30'0 0.0 30.3
2016-Jun-26 09:45N 20°50' E 136°30'0 0.1 30.3
2016-Jun-26 08:15N 20°50' E 136°30'0 0.0 30.4
2016-Jun-26 08:00N 20°50' E 136°30'1 0.3 30.4
2016-Jun-26 05:30N 20°49' E 136°29'0 0.0 30.4
2016-Jun-26 05:15N 20°49' E 136°29'1 0.2 30.4
2016-Jun-26 01:45N 20°48' E 136°29'0 0.6 30.2
2016-Jun-26 01:00N 20°48' E 136°30'1 2.9 30.2
2016-Jun-26 00:45N 20°48' E 136°31'0 0.0 30.2
2016-Jun-25 23:15N 20°48' E 136°31'0 0.9 30.1
2016-Jun-25 22:45N 20°48' E 136°30'0 0.0 30.1
2016-Jun-25 22:30N 20°48' E 136°30'0 0.3 30.1
2016-Jun-25 21:30N 20°48' E 136°31'1 2.1 30.1
2016-Jun-25 21:15N 20°48' E 136°31'0 0.0 30.1
2016-Jun-25 21:00N 20°48' E 136°31'0 0.0 30.1
2016-Jun-25 20:45N 20°48' E 136°31'1 0.6 30.1
2016-Jun-25 19:45N 20°48' E 136°32'0 0.0 30.1
2016-Jun-25 19:30N 20°48' E 136°32'0 0.0 30.1
2016-Jun-25 18:15N 20°48' E 136°32'0 0.0 30.1
2016-Jun-25 18:00N 20°48' E 136°32'1 0.3 30.1
2016-Jun-25 13:15N 20°49' E 136°33'0 0.0 30.2
2016-Jun-25 12:30N 20°49' E 136°33'0 2.0 30.2
2016-Jun-25 12:15N 20°49' E 136°33'0 0.0 30.2
2016-Jun-25 11:45N 20°49' E 136°33'0 0.0 30.2
2016-Jun-25 11:30N 20°49' E 136°33'1 0.6 30.2
2016-Jun-25 10:00N 20°50' E 136°32'0 0.0 30.3
2016-Jun-25 08:45N 20°50' E 136°32'0 0.3 30.3
2016-Jun-25 08:30N 20°50' E 136°32'0 0.0 30.4
2016-Jun-25 08:15N 20°50' E 136°32'1 0.3 30.4
2016-Jun-25 05:45N 20°49' E 136°32'0 0.0 30.4
2016-Jun-25 05:30N 20°49' E 136°32'1 0.7 30.5
2016-Jun-25 04:00N 20°48' E 136°32'0 0.1 30.4
2016-Jun-25 01:15N 20°48' E 136°32'1 0.4 30.3
2016-Jun-24 23:45N 20°47' E 136°33'0 1.4 30.2
2016-Jun-24 23:30N 20°47' E 136°32'0 0.0 30.2
2016-Jun-24 22:00N 20°47' E 136°32'0 0.0 30.2
2016-Jun-24 21:45N 20°47' E 136°32'0 0.9 30.2
2016-Jun-24 21:15N 20°48' E 136°33'0 0.0 30.2
2016-Jun-24 21:00N 20°48' E 136°33'1 1.4 30.2
2016-Jun-24 20:15N 20°48' E 136°34'0 0.9 30.2
2016-Jun-24 20:00N 20°48' E 136°34'0 0.0 30.2
2016-Jun-24 19:45N 20°48' E 136°34'1 2.7 30.3
2016-Jun-24 19:30N 20°48' E 136°34'0 0.1 30.3
2016-Jun-24 18:30N 20°48' E 136°34'0 0.0 30.3
2016-Jun-24 18:15N 20°48' E 136°34'1 0.4 30.3
2016-Jun-24 16:45N 20°48' E 136°35'1 0.3 30.3
2016-Jun-24 13:30N 20°48' E 136°36'0 0.0 30.3
2016-Jun-24 12:45N 20°48' E 136°36'1 1.1 30.3
2016-Jun-24 12:00N 20°49' E 136°36'0 0.0 30.3
2016-Jun-24 11:45N 20°49' E 136°36'1 1.9 30.3
2016-Jun-24 11:15N 20°49' E 136°36'0 0.0 30.4
2016-Jun-24 11:00N 20°49' E 136°36'1 0.5 30.4
2016-Jun-24 09:15N 20°50' E 136°36'0 0.0 30.5
2016-Jun-24 09:00N 20°50' E 136°36'0 0.0 30.5
2016-Jun-24 08:45N 20°50' E 136°36'0 1.9 30.5
2016-Jun-24 08:30N 20°50' E 136°36'0 0.0 30.5
2016-Jun-24 07:30N 20°50' E 136°36'0 0.0 30.6
2016-Jun-24 07:00N 20°50' E 136°36'0 0.0 30.5
2016-Jun-24 06:00N 20°50' E 136°36'0 0.0 30.5
2016-Jun-24 05:45N 20°50' E 136°36'0 0.2 30.5
2016-Jun-24 04:15N 20°50' E 136°36'0 0.0 30.5
2016-Jun-24 04:00N 20°50' E 136°36'1 0.2 30.5
2016-Jun-24 01:45N 20°50' E 136°36'1 2.0 30.3
2016-Jun-24 01:30N 20°50' E 136°36'0 0.2 30.3
2016-Jun-24 00:45N 20°50' E 136°36'0 0.3 30.2
2016-Jun-24 00:00N 20°50' E 136°36'0 0.0 30.1
2016-Jun-23 23:45N 20°50' E 136°36'1 0.8 30.1
2016-Jun-23 23:00N 20°51' E 136°36'0 0.0 30.0
2016-Jun-23 22:00N 20°51' E 136°36'0 0.0 30.0
2016-Jun-23 21:45N 20°51' E 136°36'0 0.0 30.0
2016-Jun-23 21:30N 20°51' E 136°36'0 0.0 30.0
2016-Jun-23 21:15N 20°51' E 136°36'0 0.4 30.0
2016-Jun-23 20:45N 20°51' E 136°35'0 0.0 30.0
2016-Jun-23 20:30N 20°51' E 136°35'0 0.2 30.1
2016-Jun-23 20:15N 20°51' E 136°35'0 0.4 30.1
2016-Jun-23 19:45N 20°51' E 136°35'0 0.0 30.1
2016-Jun-23 19:30N 20°51' E 136°35'0 0.0 30.1
2016-Jun-23 19:15N 20°51' E 136°35'0 0.0 30.1
2016-Jun-23 19:00N 20°51' E 136°35'0 0.2 30.1
2016-Jun-23 18:45N 20°51' E 136°36'0 0.0 30.1
2016-Jun-23 18:30N 20°51' E 136°36'0 0.1 30.1
2016-Jun-23 17:00N 20°51' E 136°35'0 0.0 30.1
2016-Jun-23 16:45N 20°51' E 136°35'1 0.2 30.1
2016-Jun-23 13:15N 20°51' E 136°35'0 0.0 30.2
2016-Jun-23 13:00N 20°51' E 136°35'0 0.0 30.3
2016-Jun-23 12:15N 20°51' E 136°35'1 1.0 30.3
2016-Jun-23 11:30N 20°51' E 136°36'0 0.0 30.3
2016-Jun-23 11:15N 20°51' E 136°36'1 1.8 30.3
2016-Jun-23 10:45N 20°52' E 136°35'0 0.0 30.4
2016-Jun-23 10:30N 20°52' E 136°35'0 0.3 30.4
2016-Jun-23 09:45N 20°52' E 136°36'0 1.4 30.4
2016-Jun-23 09:30N 20°52' E 136°35'0 0.0 30.4
2016-Jun-23 08:45N 20°52' E 136°35'0 0.6 30.5
2016-Jun-23 08:00N 20°52' E 136°35'0 0.0 30.6
2016-Jun-23 07:45N 20°52' E 136°35'0 0.5 30.6
2016-Jun-23 07:15N 20°52' E 136°35'0 0.0 30.6
2016-Jun-23 07:00N 20°52' E 136°35'1 0.5 30.6
2016-Jun-23 06:00N 20°52' E 136°34'1 0.5 30.5
2016-Jun-23 04:30N 20°51' E 136°34'0 0.0 30.4
2016-Jun-23 04:15N 20°51' E 136°34'1 0.4 30.4
2016-Jun-23 02:00N 20°52' E 136°35'0 0.0 30.1
2016-Jun-23 01:00N 20°52' E 136°35'0 0.4 30.0
2016-Jun-23 00:30N 20°52' E 136°35'0 0.0 30.0
2016-Jun-23 00:15N 20°52' E 136°35'2 2.2 30.0
2016-Jun-22 23:30N 20°53' E 136°34'0 0.0 30.0
2016-Jun-22 23:15N 20°53' E 136°34'0 0.0 30.0
2016-Jun-22 22:30N 20°53' E 136°34'0 0.0 29.9
2016-Jun-22 22:15N 20°53' E 136°34'0 0.0 29.9
2016-Jun-22 21:45N 20°53' E 136°34'0 0.0 29.9
2016-Jun-22 21:15N 20°53' E 136°34'1 1.4 29.9
2016-Jun-22 20:45N 20°53' E 136°33'0 0.0 29.9
2016-Jun-22 20:30N 20°53' E 136°33'0 0.0 29.9
2016-Jun-22 20:00N 20°53' E 136°33'0 1.6 29.9
2016-Jun-22 19:45N 20°53' E 136°34'1 2.5 29.9
2016-Jun-22 19:30N 20°54' E 136°33'0 0.0 29.9
2016-Jun-22 18:45N 20°54' E 136°33'0 0.3 29.9
2016-Jun-22 17:15N 20°53' E 136°33'0 0.0 29.9
2016-Jun-22 17:00N 20°53' E 136°33'0 0.1 29.9
2016-Jun-22 13:30N 20°53' E 136°32'0 0.2 29.9
2016-Jun-22 12:45N 20°54' E 136°32'0 0.0 29.9
2016-Jun-22 12:30N 20°54' E 136°32'1 0.7 30.0
2016-Jun-22 11:45N 20°54' E 136°33'1 0.9 29.9
2016-Jun-22 11:00N 20°54' E 136°32'0 0.0 30.0
2016-Jun-22 10:45N 20°54' E 136°32'1 1.1 30.0
2016-Jun-22 10:15N 20°54' E 136°33'0 0.0 30.0
2016-Jun-22 10:00N 20°54' E 136°33'0 0.4 30.0
2016-Jun-22 09:00N 20°54' E 136°33'0 0.8 30.1
2016-Jun-22 08:30N 20°54' E 136°33'1 3.1 30.1
2016-Jun-22 08:15N 20°53' E 136°34'0 0.0 30.1
2016-Jun-22 07:15N 20°53' E 136°34'0 0.4 30.1
2016-Jun-22 06:15N 20°53' E 136°34'0 0.0 30.1
2016-Jun-22 06:00N 20°53' E 136°34'1 0.4 30.1
2016-Jun-22 04:30N 20°53' E 136°34'2 0.6 30.1
2016-Jun-22 00:45N 20°53' E 136°37'0 0.0 29.9
2016-Jun-22 00:30N 20°53' E 136°37'2 0.7 29.9
2016-Jun-21 21:45N 20°53' E 136°39'0 1.0 29.9
2016-Jun-21 21:15N 20°54' E 136°39'0 0.0 29.9
2016-Jun-21 21:00N 20°54' E 136°39'2 0.9 29.9
2016-Jun-21 19:00N 20°54' E 136°41'0 0.0 29.9
2016-Jun-21 18:45N 20°54' E 136°41'4 0.8 29.9
2016-Jun-21 13:00N 20°53' E 136°45'2 1.1 30.0
2016-Jun-21 11:15N 20°52' E 136°47'0 0.0 30.0
2016-Jun-21 10:30N 20°52' E 136°47'1 0.4 30.1
2016-Jun-21 09:00N 20°52' E 136°48'0 0.0 30.1
2016-Jun-21 08:45N 20°52' E 136°48'2 1.3 30.1
2016-Jun-21 07:30N 20°50' E 136°48'1 0.7 30.2
2016-Jun-21 06:30N 20°50' E 136°49'0 0.0 30.2
2016-Jun-21 06:15N 20°50' E 136°49'2 1.3 30.2
2016-Jun-21 04:45N 20°48' E 136°50'311.7 30.2
2016-Jun-21 04:30N 20°45' E 136°50'1 0.5 30.1
2016-Jun-21 01:45N 20°44' E 136°51'0 0.3 30.0
2016-Jun-21 01:00N 20°44' E 136°52'0 0.0 30.0
2016-Jun-21 00:45N 20°44' E 136°52'1 1.2 30.0
2016-Jun-21 00:15N 20°44' E 136°52'0 0.0 30.0
2016-Jun-21 00:00N 20°44' E 136°52'1 1.7 30.0
2016-Jun-20 23:30N 20°43' E 136°52'1 5.8 30.0
2016-Jun-20 23:15N 20°42' E 136°53'0 0.1 30.0
2016-Jun-20 22:00N 20°42' E 136°53'1 2.8 29.9
2016-Jun-20 21:45N 20°41' E 136°53'   29.9

Dump ship's entire track history